sensor_id;sensor_type;location;lat;lon;timestamp;temperature;humidity
50544;DHT22;41176;44.032;20.900;2022-12-29T00:02:17;5.00;99.90
50544;DHT22;41176;44.032;20.900;2022-12-29T00:04:43;5.00;99.90
50544;DHT22;41176;44.032;20.900;2022-12-29T00:07:09;5.00;99.90
50544;DHT22;41176;44.032;20.900;2022-12-29T00:09:35;5.00;99.90
50544;DHT22;41176;44.032;20.900;2022-12-29T00:12:02;5.00;99.90
50544;DHT22;41176;44.032;20.900;2022-12-29T00:14:28;5.00;99.90
50544;DHT22;41176;44.032;20.900;2022-12-29T00:17:13;5.00;99.90
50544;DHT22;41176;44.032;20.900;2022-12-29T00:19:39;5.10;99.90
50544;DHT22;41176;44.032;20.900;2022-12-29T00:22:23;5.00;99.90
50544;DHT22;41176;44.032;20.900;2022-12-29T00:25:09;5.00;99.90
50544;DHT22;41176;44.032;20.900;2022-12-29T00:27:53;5.00;99.90
50544;DHT22;41176;44.032;20.900;2022-12-29T00:30:37;5.00;99.90
50544;DHT22;41176;44.032;20.900;2022-12-29T00:33:25;4.80;99.90
50544;DHT22;41176;44.032;20.900;2022-12-29T00:38:51;4.70;99.90
50544;DHT22;41176;44.032;20.900;2022-12-29T00:41:36;4.70;99.90
50544;DHT22;41176;44.032;20.900;2022-12-29T00:44:21;4.80;99.90
50544;DHT22;41176;44.032;20.900;2022-12-29T00:46:46;4.70;99.90
50544;DHT22;41176;44.032;20.900;2022-12-29T00:49:13;4.60;99.90
50544;DHT22;41176;44.032;20.900;2022-12-29T00:52:08;4.70;99.90
50544;DHT22;41176;44.032;20.900;2022-12-29T00:54:37;4.80;99.90
50544;DHT22;41176;44.032;20.900;2022-12-29T00:57:04;4.80;99.90
50544;DHT22;41176;44.032;20.900;2022-12-29T00:59:30;4.80;99.90
50544;DHT22;41176;44.032;20.900;2022-12-29T01:01:56;4.80;99.90
50544;DHT22;41176;44.032;20.900;2022-12-29T01:04:24;4.80;99.90
50544;DHT22;41176;44.032;20.900;2022-12-29T01:06:51;4.80;99.90
50544;DHT22;41176;44.032;20.900;2022-12-29T01:09:18;4.80;99.90
50544;DHT22;41176;44.032;20.900;2022-12-29T01:12:03;4.90;99.90
50544;DHT22;41176;44.032;20.900;2022-12-29T01:14:29;4.90;99.90
50544;DHT22;41176;44.032;20.900;2022-12-29T01:27:01;4.80;99.90
50544;DHT22;41176;44.032;20.900;2022-12-29T01:29:27;4.70;99.90
50544;DHT22;41176;44.032;20.900;2022-12-29T01:31:52;4.60;99.90
50544;DHT22;41176;44.032;20.900;2022-12-29T01:34:18;4.70;99.90
50544;DHT22;41176;44.032;20.900;2022-12-29T01:36:44;4.60;99.90
50544;DHT22;41176;44.032;20.900;2022-12-29T01:39:10;4.50;99.90
50544;DHT22;41176;44.032;20.900;2022-12-29T01:41:35;4.50;99.90
50544;DHT22;41176;44.032;20.900;2022-12-29T01:44:01;4.40;99.90
50544;DHT22;41176;44.032;20.900;2022-12-29T01:46:38;4.40;99.90
50544;DHT22;41176;44.032;20.900;2022-12-29T01:51:46;4.30;99.90
50544;DHT22;41176;44.032;20.900;2022-12-29T01:54:20;4.30;99.90
50544;DHT22;41176;44.032;20.900;2022-12-29T01:56:48;4.30;99.90
50544;DHT22;41176;44.032;20.900;2022-12-29T01:59:19;4.20;99.90
50544;DHT22;41176;44.032;20.900;2022-12-29T02:01:46;4.20;99.90
50544;DHT22;41176;44.032;20.900;2022-12-29T02:04:12;4.20;99.90
50544;DHT22;41176;44.032;20.900;2022-12-29T02:06:53;4.20;99.90
50544;DHT22;41176;44.032;20.900;2022-12-29T02:09:21;4.20;99.90
50544;DHT22;41176;44.032;20.900;2022-12-29T02:11:48;4.20;99.90
50544;DHT22;41176;44.032;20.900;2022-12-29T02:14:14;4.30;99.90
50544;DHT22;41176;44.032;20.900;2022-12-29T02:22:30;4.20;99.90
50544;DHT22;41176;44.032;20.900;2022-12-29T02:27:57;4.40;99.90
50544;DHT22;41176;44.032;20.900;2022-12-29T02:39:13;4.50;99.90
50544;DHT22;41176;44.032;20.900;2022-12-29T02:41:59;4.60;99.90
50544;DHT22;41176;44.032;20.900;2022-12-29T02:47:37;4.50;99.90
50544;DHT22;41176;44.032;20.900;2022-12-29T02:52:57;4.40;99.90
50544;DHT22;41176;44.032;20.900;2022-12-29T02:55:23;4.30;99.90
50544;DHT22;41176;44.032;20.900;2022-12-29T03:01:16;4.20;99.90
50544;DHT22;41176;44.032;20.900;2022-12-29T03:04:03;4.20;99.90
50544;DHT22;41176;44.032;20.900;2022-12-29T03:12:03;4.20;99.90
50544;DHT22;41176;44.032;20.900;2022-12-29T03:14:52;4.20;99.90
50544;DHT22;41176;44.032;20.900;2022-12-29T03:20:39;4.30;99.90
50544;DHT22;41176;44.032;20.900;2022-12-29T03:23:05;4.40;99.90
50544;DHT22;41176;44.032;20.900;2022-12-29T03:25:38;4.30;99.90
50544;DHT22;41176;44.032;20.900;2022-12-29T03:28:07;4.40;99.90
50544;DHT22;41176;44.032;20.900;2022-12-29T03:30:34;4.40;99.90
50544;DHT22;41176;44.032;20.900;2022-12-29T03:33:04;4.40;99.90
50544;DHT22;41176;44.032;20.900;2022-12-29T03:35:35;4.40;99.90
50544;DHT22;41176;44.032;20.900;2022-12-29T03:38:23;4.40;99.90
50544;DHT22;41176;44.032;20.900;2022-12-29T03:40:55;4.40;99.90
50544;DHT22;41176;44.032;20.900;2022-12-29T03:43:22;4.40;99.90
50544;DHT22;41176;44.032;20.900;2022-12-29T03:45:48;4.40;99.90
50544;DHT22;41176;44.032;20.900;2022-12-29T03:48:13;4.40;99.90
50544;DHT22;41176;44.032;20.900;2022-12-29T03:50:39;4.40;99.90
50544;DHT22;41176;44.032;20.900;2022-12-29T03:53:05;4.40;99.90
50544;DHT22;41176;44.032;20.900;2022-12-29T03:55:30;4.30;99.90
50544;DHT22;41176;44.032;20.900;2022-12-29T03:57:56;4.30;99.90
50544;DHT22;41176;44.032;20.900;2022-12-29T04:00:22;4.30;99.90
50544;DHT22;41176;44.032;20.900;2022-12-29T04:02:47;4.20;99.90
50544;DHT22;41176;44.032;20.900;2022-12-29T04:05:13;4.20;99.90
50544;DHT22;41176;44.032;20.900;2022-12-29T04:07:39;4.20;99.90
50544;DHT22;41176;44.032;20.900;2022-12-29T04:10:04;4.30;99.90
50544;DHT22;41176;44.032;20.900;2022-12-29T04:12:30;4.30;99.90
50544;DHT22;41176;44.032;20.900;2022-12-29T04:14:56;4.30;99.90
50544;DHT22;41176;44.032;20.900;2022-12-29T04:17:21;4.30;99.90
50544;DHT22;41176;44.032;20.900;2022-12-29T04:19:47;4.40;99.90
50544;DHT22;41176;44.032;20.900;2022-12-29T04:22:13;4.40;99.90
50544;DHT22;41176;44.032;20.900;2022-12-29T04:24:38;4.40;99.90
50544;DHT22;41176;44.032;20.900;2022-12-29T04:27:04;4.30;99.90
50544;DHT22;41176;44.032;20.900;2022-12-29T04:29:30;4.30;99.90
50544;DHT22;41176;44.032;20.900;2022-12-29T04:31:55;4.30;99.90
50544;DHT22;41176;44.032;20.900;2022-12-29T04:34:21;4.20;99.90
50544;DHT22;41176;44.032;20.900;2022-12-29T04:36:47;4.20;99.90
50544;DHT22;41176;44.032;20.900;2022-12-29T04:39:12;4.20;99.90
50544;DHT22;41176;44.032;20.900;2022-12-29T04:41:38;4.30;99.90
50544;DHT22;41176;44.032;20.900;2022-12-29T04:44:04;4.20;99.90
50544;DHT22;41176;44.032;20.900;2022-12-29T04:46:30;4.30;99.90
50544;DHT22;41176;44.032;20.900;2022-12-29T04:48:56;4.30;99.90
50544;DHT22;41176;44.032;20.900;2022-12-29T04:51:22;4.30;99.90
50544;DHT22;41176;44.032;20.900;2022-12-29T04:53:47;4.30;99.90
50544;DHT22;41176;44.032;20.900;2022-12-29T04:56:13;4.30;99.90
50544;DHT22;41176;44.032;20.900;2022-12-29T04:58:39;4.30;99.90
50544;DHT22;41176;44.032;20.900;2022-12-29T05:01:05;4.30;99.90
50544;DHT22;41176;44.032;20.900;2022-12-29T05:03:30;4.30;99.90
50544;DHT22;41176;44.032;20.900;2022-12-29T05:05:56;4.30;99.90
50544;DHT22;41176;44.032;20.900;2022-12-29T05:08:23;4.40;99.90
50544;DHT22;41176;44.032;20.900;2022-12-29T05:10:50;4.30;99.90
50544;DHT22;41176;44.032;20.900;2022-12-29T05:13:16;4.30;99.90
50544;DHT22;41176;44.032;20.900;2022-12-29T05:15:49;4.30;99.90
50544;DHT22;41176;44.032;20.900;2022-12-29T05:18:16;4.30;99.90
50544;DHT22;41176;44.032;20.900;2022-12-29T05:20:42;4.30;99.90
50544;DHT22;41176;44.032;20.900;2022-12-29T05:23:07;4.30;99.90
50544;DHT22;41176;44.032;20.900;2022-12-29T05:25:33;4.30;99.90
50544;DHT22;41176;44.032;20.900;2022-12-29T05:27:59;4.30;99.90
50544;DHT22;41176;44.032;20.900;2022-12-29T05:30:24;4.30;99.90
50544;DHT22;41176;44.032;20.900;2022-12-29T05:32:50;4.30;99.90
50544;DHT22;41176;44.032;20.900;2022-12-29T05:35:16;4.30;99.90
50544;DHT22;41176;44.032;20.900;2022-12-29T05:37:41;4.30;99.90
50544;DHT22;41176;44.032;20.900;2022-12-29T05:40:08;4.20;99.90
50544;DHT22;41176;44.032;20.900;2022-12-29T05:42:33;4.20;99.90
50544;DHT22;41176;44.032;20.900;2022-12-29T05:44:59;4.20;99.90
50544;DHT22;41176;44.032;20.900;2022-12-29T05:47:24;4.10;99.90
50544;DHT22;41176;44.032;20.900;2022-12-29T05:49:50;4.10;99.90
50544;DHT22;41176;44.032;20.900;2022-12-29T05:52:44;4.10;99.90
50544;DHT22;41176;44.032;20.900;2022-12-29T05:55:10;4.20;99.90
50544;DHT22;41176;44.032;20.900;2022-12-29T05:57:36;4.20;99.90
50544;DHT22;41176;44.032;20.900;2022-12-29T06:00:04;4.20;99.90
50544;DHT22;41176;44.032;20.900;2022-12-29T06:02:30;4.20;99.90
50544;DHT22;41176;44.032;20.900;2022-12-29T06:04:55;4.20;99.90
50544;DHT22;41176;44.032;20.900;2022-12-29T06:07:21;4.30;99.90
50544;DHT22;41176;44.032;20.900;2022-12-29T06:09:47;4.30;99.90
50544;DHT22;41176;44.032;20.900;2022-12-29T06:12:12;4.30;99.90
50544;DHT22;41176;44.032;20.900;2022-12-29T06:14:38;4.30;99.90
50544;DHT22;41176;44.032;20.900;2022-12-29T06:17:04;4.40;99.90
50544;DHT22;41176;44.032;20.900;2022-12-29T06:19:29;4.40;99.90
50544;DHT22;41176;44.032;20.900;2022-12-29T06:21:55;4.40;99.90
50544;DHT22;41176;44.032;20.900;2022-12-29T06:24:21;4.40;99.90
50544;DHT22;41176;44.032;20.900;2022-12-29T06:26:47;4.40;99.90
50544;DHT22;41176;44.032;20.900;2022-12-29T06:29:12;4.40;99.90
50544;DHT22;41176;44.032;20.900;2022-12-29T06:31:42;4.40;99.90
50544;DHT22;41176;44.032;20.900;2022-12-29T06:34:08;4.40;99.90
50544;DHT22;41176;44.032;20.900;2022-12-29T06:36:34;4.40;99.90
50544;DHT22;41176;44.032;20.900;2022-12-29T06:39:00;4.50;99.90
50544;DHT22;41176;44.032;20.900;2022-12-29T06:41:25;4.60;99.90
50544;DHT22;41176;44.032;20.900;2022-12-29T06:43:51;4.60;99.90
50544;DHT22;41176;44.032;20.900;2022-12-29T06:46:17;4.70;99.90
50544;DHT22;41176;44.032;20.900;2022-12-29T06:48:43;4.70;99.90
50544;DHT22;41176;44.032;20.900;2022-12-29T06:51:08;4.80;99.90
50544;DHT22;41176;44.032;20.900;2022-12-29T06:53:34;4.90;99.90
50544;DHT22;41176;44.032;20.900;2022-12-29T06:55:59;5.00;99.90
50544;DHT22;41176;44.032;20.900;2022-12-29T06:58:25;5.20;99.90
50544;DHT22;41176;44.032;20.900;2022-12-29T07:00:51;5.50;99.90
50544;DHT22;41176;44.032;20.900;2022-12-29T07:03:16;5.70;99.90
50544;DHT22;41176;44.032;20.900;2022-12-29T07:05:42;5.90;99.90
50544;DHT22;41176;44.032;20.900;2022-12-29T07:08:08;6.10;99.90
50544;DHT22;41176;44.032;20.900;2022-12-29T07:10:33;6.30;99.90
50544;DHT22;41176;44.032;20.900;2022-12-29T07:12:59;6.50;99.90
50544;DHT22;41176;44.032;20.900;2022-12-29T07:15:25;6.60;99.90
50544;DHT22;41176;44.032;20.900;2022-12-29T07:17:51;6.70;99.90
50544;DHT22;41176;44.032;20.900;2022-12-29T07:20:17;6.80;99.90
50544;DHT22;41176;44.032;20.900;2022-12-29T07:22:42;7.00;99.90
50544;DHT22;41176;44.032;20.900;2022-12-29T07:25:08;7.20;99.90
50544;DHT22;41176;44.032;20.900;2022-12-29T07:27:34;7.50;99.90
50544;DHT22;41176;44.032;20.900;2022-12-29T07:30:00;7.50;99.90
50544;DHT22;41176;44.032;20.900;2022-12-29T07:32:25;7.80;99.90
50544;DHT22;41176;44.032;20.900;2022-12-29T07:34:51;8.10;99.90
50544;DHT22;41176;44.032;20.900;2022-12-29T07:37:17;8.30;99.90
50544;DHT22;41176;44.032;20.900;2022-12-29T07:39:43;8.60;99.90
50544;DHT22;41176;44.032;20.900;2022-12-29T07:42:09;8.80;99.90
50544;DHT22;41176;44.032;20.900;2022-12-29T07:44:34;9.00;99.90
50544;DHT22;41176;44.032;20.900;2022-12-29T07:47:02;9.20;99.90
50544;DHT22;41176;44.032;20.900;2022-12-29T07:49:27;9.30;99.90
50544;DHT22;41176;44.032;20.900;2022-12-29T07:51:53;9.70;99.90
50544;DHT22;41176;44.032;20.900;2022-12-29T07:54:19;9.80;98.40
50544;DHT22;41176;44.032;20.900;2022-12-29T07:56:45;9.80;98.20
50544;DHT22;41176;44.032;20.900;2022-12-29T07:59:11;10.00;97.30
50544;DHT22;41176;44.032;20.900;2022-12-29T08:01:37;10.10;96.70
50544;DHT22;41176;44.032;20.900;2022-12-29T08:04:03;10.30;96.70
50544;DHT22;41176;44.032;20.900;2022-12-29T08:06:29;10.50;95.40
50544;DHT22;41176;44.032;20.900;2022-12-29T08:08:56;10.50;95.10
50544;DHT22;41176;44.032;20.900;2022-12-29T08:11:22;10.70;94.80
50544;DHT22;41176;44.032;20.900;2022-12-29T08:13:48;10.90;93.70
50544;DHT22;41176;44.032;20.900;2022-12-29T08:16:14;11.20;92.80
50544;DHT22;41176;44.032;20.900;2022-12-29T08:18:39;11.30;91.80
50544;DHT22;41176;44.032;20.900;2022-12-29T08:21:05;11.00;92.10
50544;DHT22;41176;44.032;20.900;2022-12-29T08:23:31;10.90;92.90
50544;DHT22;41176;44.032;20.900;2022-12-29T08:26:03;11.10;92.80
50544;DHT22;41176;44.032;20.900;2022-12-29T08:28:30;11.60;91.90
50544;DHT22;41176;44.032;20.900;2022-12-29T08:31:01;11.90;90.20
50544;DHT22;41176;44.032;20.900;2022-12-29T08:33:27;11.90;89.60
50544;DHT22;41176;44.032;20.900;2022-12-29T08:36:05;11.80;90.30
50544;DHT22;41176;44.032;20.900;2022-12-29T08:38:31;12.00;89.00
50544;DHT22;41176;44.032;20.900;2022-12-29T08:40:58;12.40;87.80
50544;DHT22;41176;44.032;20.900;2022-12-29T08:43:24;12.10;86.40
50544;DHT22;41176;44.032;20.900;2022-12-29T08:45:50;12.20;87.00
50544;DHT22;41176;44.032;20.900;2022-12-29T08:48:15;12.50;87.10
50544;DHT22;41176;44.032;20.900;2022-12-29T08:50:45;12.30;86.90
50544;DHT22;41176;44.032;20.900;2022-12-29T08:53:11;12.70;85.60
50544;DHT22;41176;44.032;20.900;2022-12-29T08:55:37;12.80;85.00
50544;DHT22;41176;44.032;20.900;2022-12-29T08:58:03;13.10;83.90
50544;DHT22;41176;44.032;20.900;2022-12-29T09:00:28;13.30;82.90
50544;DHT22;41176;44.032;20.900;2022-12-29T09:02:54;13.60;82.30
50544;DHT22;41176;44.032;20.900;2022-12-29T09:05:20;13.50;79.60
50544;DHT22;41176;44.032;20.900;2022-12-29T09:07:46;13.30;80.40
50544;DHT22;41176;44.032;20.900;2022-12-29T09:10:12;13.40;79.70
50544;DHT22;41176;44.032;20.900;2022-12-29T09:12:38;13.70;79.80
50544;DHT22;41176;44.032;20.900;2022-12-29T09:15:04;13.90;79.40
50544;DHT22;41176;44.032;20.900;2022-12-29T09:17:30;14.20;77.00
50544;DHT22;41176;44.032;20.900;2022-12-29T09:20:13;14.50;77.00
50544;DHT22;41176;44.032;20.900;2022-12-29T09:22:39;14.30;74.90
50544;DHT22;41176;44.032;20.900;2022-12-29T09:25:05;14.30;76.60
50544;DHT22;41176;44.032;20.900;2022-12-29T09:27:31;14.70;75.20
50544;DHT22;41176;44.032;20.900;2022-12-29T09:29:57;14.50;74.90
50544;DHT22;41176;44.032;20.900;2022-12-29T09:32:23;14.60;74.90
50544;DHT22;41176;44.032;20.900;2022-12-29T09:34:48;14.60;74.00
50544;DHT22;41176;44.032;20.900;2022-12-29T09:37:14;14.50;74.10
50544;DHT22;41176;44.032;20.900;2022-12-29T09:39:40;14.10;74.90
50544;DHT22;41176;44.032;20.900;2022-12-29T09:42:12;13.80;76.80
50544;DHT22;41176;44.032;20.900;2022-12-29T09:47:19;14.80;75.00
50544;DHT22;41176;44.032;20.900;2022-12-29T09:49:56;15.30;73.60
50544;DHT22;41176;44.032;20.900;2022-12-29T09:52:32;15.50;71.80
50544;DHT22;41176;44.032;20.900;2022-12-29T09:55:24;15.90;70.70
50544;DHT22;41176;44.032;20.900;2022-12-29T09:57:57;15.60;71.40
50544;DHT22;41176;44.032;20.900;2022-12-29T10:03:05;15.80;70.10
50544;DHT22;41176;44.032;20.900;2022-12-29T10:05:52;15.50;70.00
50544;DHT22;41176;44.032;20.900;2022-12-29T10:14:08;15.50;69.00
50544;DHT22;41176;44.032;20.900;2022-12-29T10:24:34;15.60;69.00
50544;DHT22;41176;44.032;20.900;2022-12-29T10:27:03;15.60;69.10
50544;DHT22;41176;44.032;20.900;2022-12-29T10:29:37;15.90;68.70
50544;DHT22;41176;44.032;20.900;2022-12-29T10:32:28;15.80;67.70
50544;DHT22;41176;44.032;20.900;2022-12-29T10:34:58;15.90;69.10
50544;DHT22;41176;44.032;20.900;2022-12-29T10:37:38;16.40;66.90
50544;DHT22;41176;44.032;20.900;2022-12-29T10:42:59;16.80;64.40
50544;DHT22;41176;44.032;20.900;2022-12-29T10:45:29;16.70;65.30
50544;DHT22;41176;44.032;20.900;2022-12-29T10:50:26;17.50;63.40
50544;DHT22;41176;44.032;20.900;2022-12-29T10:52:54;17.60;63.20
50544;DHT22;41176;44.032;20.900;2022-12-29T10:55:25;17.80;62.30
50544;DHT22;41176;44.032;20.900;2022-12-29T10:57:54;17.90;62.30
50544;DHT22;41176;44.032;20.900;2022-12-29T11:00:23;18.40;61.90
50544;DHT22;41176;44.032;20.900;2022-12-29T11:08:38;18.10;60.20
50544;DHT22;41176;44.032;20.900;2022-12-29T11:11:06;18.00;59.60
50544;DHT22;41176;44.032;20.900;2022-12-29T11:13:56;18.10;60.90
50544;DHT22;41176;44.032;20.900;2022-12-29T11:16:29;18.20;60.00
50544;DHT22;41176;44.032;20.900;2022-12-29T11:18:56;18.70;59.20
50544;DHT22;41176;44.032;20.900;2022-12-29T11:24:00;19.00;58.70
50544;DHT22;41176;44.032;20.900;2022-12-29T11:26:27;19.20;57.10
50544;DHT22;41176;44.032;20.900;2022-12-29T11:29:25;19.60;56.40
50544;DHT22;41176;44.032;20.900;2022-12-29T11:31:56;19.80;54.70
50544;DHT22;41176;44.032;20.900;2022-12-29T11:34:35;19.40;55.40
50544;DHT22;41176;44.032;20.900;2022-12-29T11:37:09;18.70;56.90
50544;DHT22;41176;44.032;20.900;2022-12-29T11:42:20;18.10;58.40
50544;DHT22;41176;44.032;20.900;2022-12-29T11:44:49;17.80;60.00
50544;DHT22;41176;44.032;20.900;2022-12-29T11:47:29;17.80;59.50
50544;DHT22;41176;44.032;20.900;2022-12-29T11:50:01;17.50;59.10
50544;DHT22;41176;44.032;20.900;2022-12-29T11:52:32;16.80;61.30
50544;DHT22;41176;44.032;20.900;2022-12-29T11:55:01;16.20;63.10
50544;DHT22;41176;44.032;20.900;2022-12-29T11:57:29;15.80;63.70
50544;DHT22;41176;44.032;20.900;2022-12-29T11:59:59;15.50;64.40
50544;DHT22;41176;44.032;20.900;2022-12-29T12:08:11;17.80;60.80
50544;DHT22;41176;44.032;20.900;2022-12-29T12:11:01;18.60;59.00
50544;DHT22;41176;44.032;20.900;2022-12-29T12:16:18;18.70;56.90
50544;DHT22;41176;44.032;20.900;2022-12-29T12:18:56;19.20;56.80
50544;DHT22;41176;44.032;20.900;2022-12-29T12:21:38;19.40;56.20
50544;DHT22;41176;44.032;20.900;2022-12-29T12:24:32;19.50;54.90
50544;DHT22;41176;44.032;20.900;2022-12-29T12:29:38;19.80;54.50
50544;DHT22;41176;44.032;20.900;2022-12-29T12:32:18;19.90;53.70
50544;DHT22;41176;44.032;20.900;2022-12-29T12:34:45;20.00;54.60
50544;DHT22;41176;44.032;20.900;2022-12-29T12:40:24;20.00;53.40
50544;DHT22;41176;44.032;20.900;2022-12-29T12:45:55;20.80;52.60
50544;DHT22;41176;44.032;20.900;2022-12-29T12:59:42;18.90;57.20
50544;DHT22;41176;44.032;20.900;2022-12-29T13:10:49;16.00;62.50
50544;DHT22;41176;44.032;20.900;2022-12-29T13:13:35;15.50;64.30
50544;DHT22;41176;44.032;20.900;2022-12-29T13:16:32;15.20;65.70
50544;DHT22;41176;44.032;20.900;2022-12-29T13:30:19;14.70;67.50
50544;DHT22;41176;44.032;20.900;2022-12-29T13:38:46;14.60;68.10
50544;DHT22;41176;44.032;20.900;2022-12-29T13:43:55;14.60;68.00
50544;DHT22;41176;44.032;20.900;2022-12-29T13:46:26;14.60;68.30
50544;DHT22;41176;44.032;20.900;2022-12-29T13:49:13;14.60;69.00
50544;DHT22;41176;44.032;20.900;2022-12-29T13:51:59;14.60;69.00
50544;DHT22;41176;44.032;20.900;2022-12-29T13:57:37;14.60;69.40
50544;DHT22;41176;44.032;20.900;2022-12-29T14:00:26;14.50;69.60
50544;DHT22;41176;44.032;20.900;2022-12-29T14:06:18;14.60;69.80
50544;DHT22;41176;44.032;20.900;2022-12-29T14:08:44;14.60;69.30
50544;DHT22;41176;44.032;20.900;2022-12-29T14:11:13;14.60;69.30
50544;DHT22;41176;44.032;20.900;2022-12-29T14:13:42;14.60;69.70
50544;DHT22;41176;44.032;20.900;2022-12-29T14:16:31;14.70;69.10
50544;DHT22;41176;44.032;20.900;2022-12-29T14:19:12;14.70;69.50
50544;DHT22;41176;44.032;20.900;2022-12-29T14:21:38;14.70;69.70
50544;DHT22;41176;44.032;20.900;2022-12-29T14:26:53;14.70;69.20
50544;DHT22;41176;44.032;20.900;2022-12-29T14:31:51;14.40;70.10
50544;DHT22;41176;44.032;20.900;2022-12-29T14:36:59;14.30;70.90
50544;DHT22;41176;44.032;20.900;2022-12-29T14:39:39;14.30;70.90
50544;DHT22;41176;44.032;20.900;2022-12-29T14:44:58;14.10;71.50
50544;DHT22;41176;44.032;20.900;2022-12-29T14:47:34;14.10;71.50
50544;DHT22;41176;44.032;20.900;2022-12-29T14:52:31;14.00;71.60
50544;DHT22;41176;44.032;20.900;2022-12-29T14:57:35;13.90;72.00
50544;DHT22;41176;44.032;20.900;2022-12-29T15:00:14;13.80;72.60
50544;DHT22;41176;44.032;20.900;2022-12-29T15:02:48;13.70;73.20
50544;DHT22;41176;44.032;20.900;2022-12-29T15:07:59;13.70;73.60
50544;DHT22;41176;44.032;20.900;2022-12-29T15:10:27;13.70;73.60
50544;DHT22;41176;44.032;20.900;2022-12-29T15:13:03;13.60;73.90
50544;DHT22;41176;44.032;20.900;2022-12-29T15:15:37;13.60;74.30
50544;DHT22;41176;44.032;20.900;2022-12-29T15:20:42;13.40;74.70
50544;DHT22;41176;44.032;20.900;2022-12-29T15:23:12;13.40;74.60
50544;DHT22;41176;44.032;20.900;2022-12-29T15:26:07;13.40;74.20
50544;DHT22;41176;44.032;20.900;2022-12-29T15:28:45;13.40;74.70
50544;DHT22;41176;44.032;20.900;2022-12-29T15:33:45;13.30;74.80
50544;DHT22;41176;44.032;20.900;2022-12-29T15:36:18;13.30;74.60
50544;DHT22;41176;44.032;20.900;2022-12-29T15:38:44;13.30;74.90
50544;DHT22;41176;44.032;20.900;2022-12-29T15:41:43;13.40;74.80
50544;DHT22;41176;44.032;20.900;2022-12-29T15:44:36;13.40;75.00
50544;DHT22;41176;44.032;20.900;2022-12-29T15:47:11;13.30;75.30
50544;DHT22;41176;44.032;20.900;2022-12-29T15:49:42;13.30;75.30
50544;DHT22;41176;44.032;20.900;2022-12-29T15:52:09;13.30;75.60
50544;DHT22;41176;44.032;20.900;2022-12-29T15:54:36;13.20;76.00
50544;DHT22;41176;44.032;20.900;2022-12-29T15:57:02;13.20;76.30
50544;DHT22;41176;44.032;20.900;2022-12-29T15:59:30;13.20;76.00
50544;DHT22;41176;44.032;20.900;2022-12-29T16:01:58;13.00;76.90
50544;DHT22;41176;44.032;20.900;2022-12-29T16:04:26;13.10;77.10
50544;DHT22;41176;44.032;20.900;2022-12-29T16:06:58;13.10;76.80
50544;DHT22;41176;44.032;20.900;2022-12-29T16:09:35;13.10;76.70
50544;DHT22;41176;44.032;20.900;2022-12-29T16:12:22;13.20;77.00
50544;DHT22;41176;44.032;20.900;2022-12-29T16:14:54;13.10;76.70
50544;DHT22;41176;44.032;20.900;2022-12-29T16:17:23;13.10;77.30
50544;DHT22;41176;44.032;20.900;2022-12-29T16:20:03;13.00;77.50
50544;DHT22;41176;44.032;20.900;2022-12-29T16:22:36;13.00;77.90
50544;DHT22;41176;44.032;20.900;2022-12-29T16:25:15;12.90;78.00
50544;DHT22;41176;44.032;20.900;2022-12-29T16:27:44;12.90;78.20
50544;DHT22;41176;44.032;20.900;2022-12-29T16:30:20;12.80;78.40
50544;DHT22;41176;44.032;20.900;2022-12-29T16:32:49;12.80;78.70
50544;DHT22;41176;44.032;20.900;2022-12-29T16:35:20;12.80;78.50
50544;DHT22;41176;44.032;20.900;2022-12-29T16:37:49;12.70;78.70
50544;DHT22;41176;44.032;20.900;2022-12-29T16:40:31;12.70;79.00
50544;DHT22;41176;44.032;20.900;2022-12-29T16:43:00;12.70;78.90
50544;DHT22;41176;44.032;20.900;2022-12-29T16:48:18;12.60;79.30
50544;DHT22;41176;44.032;20.900;2022-12-29T16:50:45;12.60;79.50
50544;DHT22;41176;44.032;20.900;2022-12-29T16:53:36;12.60;79.60
50544;DHT22;41176;44.032;20.900;2022-12-29T16:56:13;12.60;79.80
50544;DHT22;41176;44.032;20.900;2022-12-29T16:58:40;12.60;79.40
50544;DHT22;41176;44.032;20.900;2022-12-29T17:01:06;12.60;79.20
50544;DHT22;41176;44.032;20.900;2022-12-29T17:03:53;12.60;79.20
50544;DHT22;41176;44.032;20.900;2022-12-29T17:06:21;12.50;79.60
50544;DHT22;41176;44.032;20.900;2022-12-29T17:08:47;12.50;79.60
50544;DHT22;41176;44.032;20.900;2022-12-29T17:11:33;12.60;79.50
50544;DHT22;41176;44.032;20.900;2022-12-29T17:19:59;12.50;80.40
50544;DHT22;41176;44.032;20.900;2022-12-29T17:22:28;12.40;80.70
50544;DHT22;41176;44.032;20.900;2022-12-29T17:24:57;12.30;80.90
50544;DHT22;41176;44.032;20.900;2022-12-29T17:27:30;12.30;80.80
50544;DHT22;41176;44.032;20.900;2022-12-29T17:30:00;12.30;81.10
50544;DHT22;41176;44.032;20.900;2022-12-29T17:32:28;12.30;81.10
50544;DHT22;41176;44.032;20.900;2022-12-29T17:34:53;12.30;80.90
50544;DHT22;41176;44.032;20.900;2022-12-29T17:39:48;12.30;81.40
50544;DHT22;41176;44.032;20.900;2022-12-29T17:42:13;12.20;81.40
50544;DHT22;41176;44.032;20.900;2022-12-29T17:44:39;12.20;81.80
50544;DHT22;41176;44.032;20.900;2022-12-29T17:47:07;12.10;83.00
50544;DHT22;41176;44.032;20.900;2022-12-29T17:49:36;12.00;82.70
50544;DHT22;41176;44.032;20.900;2022-12-29T17:52:03;11.90;83.30
50544;DHT22;41176;44.032;20.900;2022-12-29T17:54:29;11.90;83.60
50544;DHT22;41176;44.032;20.900;2022-12-29T17:56:56;11.90;83.80
50544;DHT22;41176;44.032;20.900;2022-12-29T17:59:24;11.80;83.90
50544;DHT22;41176;44.032;20.900;2022-12-29T18:01:49;11.80;84.30
50544;DHT22;41176;44.032;20.900;2022-12-29T18:04:17;11.70;84.50
50544;DHT22;41176;44.032;20.900;2022-12-29T18:06:44;11.70;84.80
50544;DHT22;41176;44.032;20.900;2022-12-29T18:09:12;11.70;84.90
50544;DHT22;41176;44.032;20.900;2022-12-29T18:11:42;11.60;85.20
50544;DHT22;41176;44.032;20.900;2022-12-29T18:14:13;11.60;85.70
50544;DHT22;41176;44.032;20.900;2022-12-29T18:16:39;11.50;86.00
50544;DHT22;41176;44.032;20.900;2022-12-29T18:19:05;11.50;86.30
50544;DHT22;41176;44.032;20.900;2022-12-29T18:21:31;11.50;86.30
50544;DHT22;41176;44.032;20.900;2022-12-29T18:23:57;11.50;86.60
50544;DHT22;41176;44.032;20.900;2022-12-29T18:26:28;11.50;86.60
50544;DHT22;41176;44.032;20.900;2022-12-29T18:28:57;11.50;86.80
50544;DHT22;41176;44.032;20.900;2022-12-29T18:31:26;11.50;87.20
50544;DHT22;41176;44.032;20.900;2022-12-29T18:33:53;11.40;87.50
50544;DHT22;41176;44.032;20.900;2022-12-29T18:36:19;11.50;87.60
50544;DHT22;41176;44.032;20.900;2022-12-29T18:38:45;11.50;87.50
50544;DHT22;41176;44.032;20.900;2022-12-29T18:41:20;11.50;87.70
50544;DHT22;41176;44.032;20.900;2022-12-29T18:43:46;11.50;88.10
50544;DHT22;41176;44.032;20.900;2022-12-29T18:46:12;11.50;88.10